Stations météo

réclame
Mon MeteoGroup
Bourg-St-Maurice, France (7497): Température de l'air & dewpoint: 14.11.2017 01:00:00 - 20.11.2017 01:00:00 (CET)Bourg-St-Maurice, France (7497): Température de l'air 5cm: 14.11.2017 01:00:00 - 20.11.2017 01:00:00 (CET)Bourg-St-Maurice, France (7497): Température de l'air -20cm & Température de l'air -100cm: 14.11.2017 01:00:00 - 20.11.2017 01:00:00 (CET)Bourg-St-Maurice, France (7497): Vitesse du vent & gusts: 14.11.2017 01:00:00 - 20.11.2017 01:00:00 (CET)Bourg-St-Maurice, France (7497): Direction du vent: 14.11.2017 01:00:00 - 20.11.2017 01:00:00 (CET)Bourg-St-Maurice, France (7497): Ensoleillement: 14.11.2017 01:00:00 - 20.11.2017 01:00:00 (CET)Bourg-St-Maurice, France (7497): Quantités de précipitations: 14.11.2017 01:00:00 - 20.11.2017 01:00:00 (CET)
Date & Time tt [°C] td [°C] tt 5cm [°C] tt -20cm [°C] tt -100cm [°C] ff [km/h] ff [knt] fx [km/h] fx [knt] dd sd [min] rr [mm]
20.11.2017 01:00:00 -1,6 -3,0 - - - 0 0 4 2 N - -
20.11.2017 00:00:00 -1,0 -2,4 -3,3 3,5 9,7 0 0 6 4 N 0 0,0
19.11.2017 23:00:00 -0,7 -2,1 -3,2 3,6 9,7 4 2 5 3 N 0 0,0
19.11.2017 22:00:00 -0,3 -2,0 -2,7 3,6 9,7 0 0 8 4 N 0 0,0
19.11.2017 21:00:00 0,2 -1,7 -1,9 3,7 9,8 3 2 6 4 NNE 0 0,0
19.11.2017 20:00:00 0,5 -1,6 -2,1 3,7 9,8 5 3 7 4 N 0 0,0
19.11.2017 19:00:00 1,4 -1,3 -0,5 3,7 9,8 3 2 8 5 NW 0 0,0
19.11.2017 18:00:00 2,7 -1,3 0,5 3,6 9,8 4 2 8 4 WNW 0 0,0
19.11.2017 17:00:00 3,5 -1,1 2,5 3,5 9,8 4 2 5 3 W 0 0,0
19.11.2017 16:00:00 4,8 -1,0 5,0 3,4 9,9 2 1 5 3 WNW 4 0,0
19.11.2017 15:00:00 6,0 -1,2 6,9 3,2 9,8 2 1 5 3 NNE 22 0,0
19.11.2017 14:00:00 5,1 -1,6 4,8 3,1 9,8 2 1 9 5 NNE 27 0,0
19.11.2017 13:00:00 3,8 -3,5 4,2 3,0 9,9 5 3 9 5 N 7 0,0
19.11.2017 12:00:00 2,4 -3,1 2,6 3,1 9,9 2 1 6 3 SSE 0 0,0
19.11.2017 11:00:00 0,8 -2,8 0,8 3,1 9,9 2 1 7 4 NNE 0 0,0
19.11.2017 10:00:00 -0,4 -3,1 -0,5 3,1 9,9 2 1 5 3 WSW 0 0,0
19.11.2017 09:00:00 -1,3 -3,3 -1,5 3,2 9,9 0 0 5 3 N 0 0,0
19.11.2017 08:00:00 -1,5 -4,0 -2,3 3,3 9,9 0 0 8 4 N 0 0,0
19.11.2017 07:00:00 -2,0 -4,0 -2,7 3,3 9,9 2 1 10 6 WNW 0 0,0
19.11.2017 06:00:00 -1,9 -3,9 -2,3 3,4 9,9 2 1 6 3 W 0 0,0
19.11.2017 05:00:00 -2,6 -4,2 -3,2 3,4 9,9 4 2 7 4 NNW 0 0,0
19.11.2017 04:00:00 -3,0 -4,3 -4,3 3,5 10,0 3 2 10 5 NNW 0 0,0
19.11.2017 03:00:00 -3,5 -4,9 -5,1 3,6 10,0 0 0 5 3 N 0 0,0
19.11.2017 02:00:00 -3,1 -4,4 -4,9 3,7 10,0 2 1 5 3 WNW 0 0,0
19.11.2017 01:00:00 -2,6 -3,9 -5,0 3,8 10,0 4 2 7 4 N 0 0,0
19.11.2017 00:00:00 -2,8 -4,2 -4,6 3,9 10,0 0 0 6 3 N 0 0,0
18.11.2017 23:00:00 -2,5 -3,8 -4,2 4,0 10,0 2 1 7 4 NW 0 0,0
18.11.2017 22:00:00 -2,2 -3,6 -4,2 4,1 10,0 0 0 5 3 N 0 0,0
18.11.2017 21:00:00 -1,8 -3,5 -3,5 4,1 10,0 2 1 6 3 N 0 0,0
18.11.2017 20:00:00 -1,3 -3,2 -3,3 4,2 10,0 0 0 6 3 N 0 0,0
18.11.2017 19:00:00 -0,5 -3,0 -2,2 4,2 10,1 4 2 6 3 N 0 0,0
18.11.2017 18:00:00 0,5 -2,7 -0,9 4,2 10,1 4 2 7 4 NNE 0 0,0
18.11.2017 17:00:00 1,6 -2,4 -0,1 4,1 10,1 3 1 8 4 N 0 0,0
18.11.2017 16:00:00 3,9 -2,5 2,6 3,9 10,1 4 2 9 5 NNW 54 0,0
18.11.2017 15:00:00 7,8 -1,5 9,4 3,7 10,1 4 2 13 7 SW 60 0,0
18.11.2017 14:00:00 7,5 -2,5 8,0 3,5 10,1 6 4 13 7 S 60 0,0
18.11.2017 13:00:00 6,5 -1,2 6,9 3,3 10,1 6 4 11 6 S 60 0,0
18.11.2017 12:00:00 4,4 -1,0 5,0 3,4 10,1 5 3 12 6 S 60 0,2
18.11.2017 11:00:00 2,7 -1,5 2,6 3,4 10,2 5 3 9 5 S 60 0,0
18.11.2017 10:00:00 -0,6 -0,7 -4,6 3,5 10,2 0 0 8 4 N 26 0,0
18.11.2017 09:00:00 -4,0 -5,0 -5,8 3,5 10,1 3 1 4 2 N 0 0,0
18.11.2017 08:00:00 -4,1 -4,9 -6,1 3,7 10,2 3 1 4 2 WNW 0 0,0
18.11.2017 07:00:00 -3,8 -4,8 -5,8 3,7 10,2 2 1 8 4 SW 0 0,0
18.11.2017 06:00:00 -3,5 -4,2 -5,4 3,8 10,2 6 3 8 4 N 0 0,0
18.11.2017 05:00:00 -3,8 -4,6 -5,8 3,9 10,2 3 2 5 3 N 0 0,0
18.11.2017 04:00:00 -3,3 -4,3 -5,2 4,0 10,2 0 0 4 2 N 0 0,0
18.11.2017 03:00:00 -2,9 -3,9 -4,3 4,1 10,2 4 2 6 3 N 0 0,0
18.11.2017 02:00:00 -2,9 -3,9 -4,4 4,2 10,3 4 2 6 3 N 0 0,0
18.11.2017 01:00:00 -2,6 -3,4 -4,3 4,3 10,3 0 0 4 2 N 0 0,0
18.11.2017 00:00:00 -2,2 -3,3 -3,7 4,4 10,3 2 1 5 3 NNE 0 0,0
17.11.2017 23:00:00 -1,7 -2,7 -3,4 4,5 10,3 3 2 7 4 N 0 0,0
17.11.2017 22:00:00 -1,5 -2,6 -3,2 4,6 10,3 3 1 6 3 N 0 0,0
17.11.2017 21:00:00 -1,3 -2,4 -3,0 4,7 10,3 3 1 6 3 NNW 0 0,0
17.11.2017 20:00:00 -1,1 -2,8 -2,0 4,8 10,3 5 3 8 4 SSW 0 0,0
17.11.2017 19:00:00 -0,2 -2,3 -2,1 4,8 10,3 3 1 5 3 N 0 0,0
17.11.2017 18:00:00 0,9 -1,7 -1,3 4,8 10,4 4 2 5 3 NNW 0 0,0
17.11.2017 17:00:00 2,2 -1,2 1,0 4,7 10,4 0 0 9 5 N 0 0,0
17.11.2017 16:00:00 5,1 -1,4 3,3 4,5 10,4 5 3 16 9 SW 55 0,0
17.11.2017 15:00:00 8,7 -0,9 10,2 4,2 10,4 8 4 16 9 S 60 0,0
17.11.2017 14:00:00 9,5 -1,3 9,9 3,9 10,4 7 4 16 9 S 60 0,0
17.11.2017 13:00:00 9,0 -2,3 10,2 3,7 10,4 7 4 13 7 S 60 0,0
17.11.2017 12:00:00 7,1 -1,3 6,9 3,6 10,4 0 0 7 4 N 60 0,0
17.11.2017 11:00:00 4,0 -0,4 2,8 3,7 10,4 5 3 10 5 S 60 0,2
17.11.2017 10:00:00 0,8 0,1 -3,2 3,7 10,4 3 2 9 5 NNE 28 0,0
17.11.2017 09:00:00 -2,6 -3,4 -4,1 3,8 10,4 6 3 8 4 N 0 0,0
17.11.2017 08:00:00 -3,1 -3,6 -4,5 3,9 10,5 5 3 8 5 N 0 0,0
17.11.2017 07:00:00 -3,5 -4,0 -4,6 4,0 10,5 5 3 11 6 N 0 0,0
17.11.2017 06:00:00 -3,0 -3,8 -5,0 4,1 10,5 3 2 7 4 SSW 0 0,0
17.11.2017 05:00:00 -2,5 -3,2 -4,4 4,2 10,5 2 1 7 4 NNW 0 0,0
17.11.2017 04:00:00 -2,6 -3,6 -4,2 4,3 10,5 0 0 9 5 N 0 0,0
17.11.2017 03:00:00 -1,9 -3,0 -3,8 4,4 10,5 3 2 6 3 N 0 0,0
17.11.2017 02:00:00 -1,4 -2,4 -3,7 4,5 10,5 2 1 8 4 NW 0 0,0
17.11.2017 01:00:00 -1,2 -1,9 -3,3 4,6 10,6 4 2 7 4 NNW 0 0,0
17.11.2017 00:00:00 -1,2 -2,3 -2,6 4,7 10,6 0 0 6 4 N 0 0,0
16.11.2017 23:00:00 -0,8 -1,8 -2,8 4,8 10,6 4 2 5 3 NNE 0 0,0
16.11.2017 22:00:00 -0,4 -1,5 -2,1 4,9 10,6 3 2 5 3 N 0 0,0
16.11.2017 21:00:00 0,2 -1,2 -2,1 5,0 10,6 0 0 6 3 N 0 0,0
16.11.2017 20:00:00 0,6 -0,7 -1,5 5,0 10,6 3 2 5 3 N 0 0,0
16.11.2017 19:00:00 1,6 0,0 -0,4 5,0 10,6 4 2 6 3 N 0 0,0
16.11.2017 18:00:00 2,3 0,0 0,6 5,0 10,7 3 2 5 3 N 0 0,0
16.11.2017 17:00:00 4,1 0,2 2,3 4,8 10,7 0 0 8 4 N 0 0,0
16.11.2017 16:00:00 6,2 0,3 5,2 4,6 10,7 3 1 7 4 W 56 0,0
16.11.2017 15:00:00 9,0 0,2 12,2 4,3 10,7 3 2 11 6 NNE 60 0,0
16.11.2017 14:00:00 11,6 0,1 13,0 3,9 10,7 4 2 11 6 SSW 60 0,0
16.11.2017 13:00:00 11,0 -0,5 11,4 3,7 10,7 2 1 7 4 SE 60 0,0
16.11.2017 12:00:00 8,6 0,8 9,5 3,6 10,8 4 2 6 4 ESE 60 0,0
16.11.2017 11:00:00 4,5 0,3 5,7 3,6 10,8 2 1 8 4 NNE 60 0,2
16.11.2017 10:00:00 0,3 -0,1 -3,8 3,7 10,8 5 3 8 4 NNE 29 0,0
16.11.2017 09:00:00 -2,1 -2,9 -4,2 3,7 10,8 3 2 5 3 N 0 0,0
16.11.2017 08:00:00 -2,5 -3,3 -5,0 3,8 10,8 3 2 5 3 N 0 0,0
16.11.2017 07:00:00 -2,3 -3,1 -4,7 3,9 10,8 0 0 7 4 N 0 0,0
16.11.2017 06:00:00 -2,1 -2,9 -4,9 4,0 10,8 2 1 6 4 N 0 0,0
16.11.2017 05:00:00 -1,9 -2,5 -4,7 4,1 10,9 4 2 7 4 NW 0 0,0
16.11.2017 04:00:00 -2,3 -3,1 -4,6 4,2 10,9 0 0 6 4 N 0 0,0
16.11.2017 03:00:00 -2,0 -2,7 -4,1 4,3 10,9 3 2 6 4 SW 0 0,0
16.11.2017 02:00:00 -2,1 -2,9 -4,2 4,4 10,9 4 2 7 4 N 0 0,0
16.11.2017 01:00:00 -1,6 -2,3 -3,6 4,5 10,9 4 2 6 3 N 0 0,0
16.11.2017 00:00:00 -1,4 -2,0 -3,2 4,6 10,9 3 1 6 3 N 0 0,0
15.11.2017 23:00:00 -1,6 -2,6 -3,6 4,7 10,9 4 2 6 4 N 0 0,0
15.11.2017 22:00:00 -1,1 -2,1 -3,0 4,8 10,9 5 3 6 3 N 0 0,0
15.11.2017 21:00:00 -0,8 -1,5 -2,8 4,8 11,0 5 3 8 4 NNW 0 0,0
15.11.2017 20:00:00 -0,6 -1,7 -2,9 4,9 11,0 0 0 5 3 N 0 0,0
15.11.2017 19:00:00 0,1 -1,0 -2,1 4,9 11,0 3 2 5 3 N 0 0,0
15.11.2017 18:00:00 0,9 -0,9 -1,0 4,9 11,0 3 1 7 4 N 0 0,0
15.11.2017 17:00:00 2,3 -0,3 1,3 4,7 11,0 4 2 9 5 N 0 0,0
15.11.2017 16:00:00 4,0 -0,6 3,3 4,5 11,0 5 3 11 6 NNW 57 0,0
15.11.2017 15:00:00 7,4 -0,8 9,8 4,3 11,0 4 2 13 7 WSW 60 0,0
15.11.2017 14:00:00 8,3 -2,1 9,2 4,0 11,1 7 4 14 8 S 60 0,0
15.11.2017 13:00:00 7,1 -1,6 8,5 3,9 11,1 7 4 14 7 S 60 0,0
15.11.2017 12:00:00 5,7 -1,7 6,6 3,8 11,1 4 2 9 5 SSE 60 0,0
15.11.2017 11:00:00 3,6 -1,4 3,7 3,9 11,1 3 2 8 4 SSE 60 0,2
15.11.2017 10:00:00 -1,7 -2,5 -4,3 4,0 11,1 3 2 7 4 NNE 31 0,0
15.11.2017 09:00:00 -4,2 -5,3 -5,1 4,1 11,1 0 0 5 3 N 0 0,0
15.11.2017 08:00:00 -4,4 -5,5 -6,0 4,2 11,1 3 2 5 3 N 0 0,0
15.11.2017 07:00:00 -4,7 -5,9 -6,4 4,3 11,2 0 0 3 2 N 0 0,0
15.11.2017 06:00:00 -4,4 -5,5 -6,0 4,4 11,2 0 0 5 3 N 0 0,0
15.11.2017 05:00:00 -4,4 -5,5 -6,1 4,5 11,2 2 1 5 3 NNW 0 0,0
15.11.2017 04:00:00 -4,1 -5,2 -5,8 4,6 11,2 0 0 4 2 N 0 0,0
15.11.2017 03:00:00 -4,0 -5,1 -5,0 4,7 11,2 3 2 6 4 N 0 0,0
15.11.2017 02:00:00 -3,7 -5,1 -5,0 4,8 11,3 0 0 5 3 N 0 0,0
15.11.2017 01:00:00 -3,4 -4,5 -4,8 4,9 11,3 6 3 9 5 N 0 0,0
15.11.2017 00:00:00 -3,3 -4,6 -4,7 5,0 11,3 2 1 5 3 WNW 0 0,0
14.11.2017 23:00:00 -3,0 -4,4 -4,2 5,2 11,3 0 0 6 3 N 0 0,0
14.11.2017 22:00:00 -2,7 -4,3 -4,3 5,3 11,3 3 2 4 2 N 0 0,0
14.11.2017 21:00:00 -2,1 -4,0 -3,5 5,4 11,3 2 1 6 4 N 0 0,0
14.11.2017 20:00:00 -1,9 -3,6 -3,4 5,5 11,3 0 0 6 3 N 0 0,0
14.11.2017 19:00:00 -1,5 -3,4 -2,7 5,6 11,3 4 2 8 5 NNW 0 0,0
14.11.2017 18:00:00 -0,6 -3,5 -1,8 5,6 11,3 4 2 7 4 N 0 0,0
14.11.2017 17:00:00 0,4 -3,7 -0,5 5,5 11,4 4 2 12 7 NNW 0 0,0
14.11.2017 16:00:00 1,7 -3,8 1,3 5,3 11,4 8 4 14 8 WNW 58 0,0
14.11.2017 15:00:00 3,5 -4,2 6,6 5,1 11,4 5 3 11 6 N 60 0,0
14.11.2017 14:00:00 4,8 -5,0 7,6 4,8 11,4 3 2 10 5 N 60 0,0
14.11.2017 13:00:00 4,5 -6,7 6,1 4,6 11,4 5 3 12 6 ESE 60 0,0
14.11.2017 12:00:00 3,5 -7,3 4,6 4,6 11,4 2 1 9 5 SE 60 0,0
14.11.2017 11:00:00 1,9 -6,4 3,3 4,7 11,4 4 2 9 5 S 60 0,0
14.11.2017 10:00:00 -1,7 -4,4 -4,8 4,8 11,4 2 1 5 3 N 32 0,0
14.11.2017 09:00:00 -4,8 -6,5 -5,3 4,9 11,5 3 2 8 5 NNE 0 0,0
14.11.2017 08:00:00 -4,9 -6,7 -6,2 5,0 11,4 4 2 6 3 N 0 0,0
14.11.2017 07:00:00 -4,7 -6,4 -6,0 5,1 11,5 0 0 4 2 N 0 0,0
14.11.2017 06:00:00 -4,0 -5,8 -5,5 5,3 11,5 0 0 5 3 N 0 0,0
14.11.2017 05:00:00 -3,2 -5,1 -4,9 5,4 11,5 0 0 6 3 N 0 0,0
14.11.2017 04:00:00 -3,0 -4,3 -4,0 5,6 11,5 4 2 7 4 N 0 0,0
14.11.2017 03:00:00 -3,2 -4,8 -4,1 5,7 11,5 0 0 6 3 N 0 0,0
14.11.2017 02:00:00 -3,0 -4,9 -4,2 5,9 11,5 0 0 5 3 N 0 0,0
14.11.2017 01:00:00 -3,2 -4,8 -4,6 6,1 11,5 2 1 4 2 N 0 0,0

tt = Température de l'air
td = dewpoint
tt 5cm = Température de l'air 5cm
tt -20cm = Température de l'air -20cm
tt -100cm = Température de l'air -100cm
ff = Vitesse du vent
fx = gusts
dd = Direction du vent
sd = Ensoleillement
rr = Quantités de précipitations

stations d'obs. à proximité